Taichung Ching Chuang Kang Airport
RCMQ : now visible

Airfield :











YOU CAN JOIN US ON...

 
LOGIN :

Register | Disclaimer

   EN    FR    IT 

 









Legend :    VFR   Marginal VFR   IFR   Intensive IFR   Very Intensive IFR
Visi :
Ceiling :
>= 8 km
>= 3000ft
5 to 8 km
1000 to 3000 ft
1500m to 5 km
500 to 1000 ft
800 to 1500m
200 to 500 ft
< 800m
< 200 ft
Symbols :   Thunderstorms  Fog  Heavy snow  Heavy precipitations  Wind > 20 kt






- Airport Elevation : 663 ft
- IATA code : RMQ


RCMQ - Taichung Ching Chuang Kang

CURRENT METAR :
  • 242313Z 12003KT 6000 VCSH SCT006 BKN012 BKN030 27/24 Q1011 NOSIG RMK A2988 APCH CLD SCT006 VCSH SE

EXPIRED METARs :
  • 242300Z 13003KT 6000 -RA SCT006 BKN012 BKN030 26/24 Q1011 NOSIG RMK A2987 APCH CLD SCT006
  • 242248Z 12004KT 6000 -RA SCT006 BKN012 BKN040 26/24 Q1011 NOSIG RMK A2987 RWY18
  • 242240Z 12004KT 6000 -RA SCT006 BKN012 BKN040 26/24 Q1011 NOSIG RMK A2987
  • 242230Z 12003KT 6000 VCSH SCT006 BKN012 BKN040 26/24 Q1011 NOSIG RMK A2987 VCSH S
  • 242200Z 13002KT 6000 SCT006 BKN012 BKN040 26/24 Q1011 NOSIG RMK A2986
  • 242130Z 12003KT 5000 BR SCT006 BKN012 BKN040 26/24 Q1010 NOSIG RMK A2985
  • 242100Z 12002KT 5000 BR SCT006 BKN012 BKN040 25/24 Q1010 NOSIG RMK A2984
  • 242030Z 10003KT 6000 FEW010 BKN020 BKN040 25/24 Q1010 RMK A2985

TAF TAF RCMQ
Valid from the 25 at 00:00 until the 26 at 00:00 UTC


242300Z 2500/2524 22004KT 6000 SCT006 BKN012 BKN030 TX30/2505Z TN21/2521Z
BECMG 2501/2503 24006KT 8000
BECMG 2504/2507 34006KT 9999 FEW010 BKN025 BKN050
BECMG 2510/2513 18004KT 8000
TEMPO 2518/2523 5000 -RA BR SCT006 BKN012 BKN030
RCAA FIR / Asia



MET'MAP, your aeronautical weather chart ! - Copyright ORBIFLY December 2007 - Disclaimer

ORBIFLY MET'MAP TEAM :

Programming & Development : Alexandra Zaïnal
Concept & original design : Baudouin d'Aumeries
Assistance for programming : Marc-Olivier Méhu
Technical & hardware support : Manuel Goepfert

Contact : metmap@orbifly.com




SOURCES & CREDITS :

   NOAA       Earth
Advisory